Time;durP1;ratioP1;P1;durP2;ratioP2;P2;SDS_P1;SDS_P2;PMS_P1;PMS_P2;Temp;Humidity;BMP_temperature;BMP_pressure;BME280_temperature;BME280_humidity;BME280_pressure;Samples;Min_cycle;Max_cycle;Signal;HPM_P1;HPM_P2
2023/12/17 00:00:12;;;;;;;11.98;6.25;;;;;;;0.47;93.40;102213.69;6305713;28;20063;-75
2023/12/17 00:03:15;;;;;;;15.83;6.57;;;;;;;0.55;93.74;102209.53;6320151;28;20068;-71
2023/12/17 00:06:17;;;;;;;14.07;7.95;;;;;;;0.58;93.58;102214.75;6307711;28;20053;-75
2023/12/17 00:09:17;;;;;;;15.15;7.47;;;;;;;0.64;93.63;102217.41;6300670;28;20058;-75
2023/12/17 00:12:18;;;;;;;11.23;5.72;;;;;;;0.67;93.32;102225.13;6302980;28;20048;-75
2023/12/17 00:15:19;;;;;;;10.75;5.88;;;;;;;0.57;92.94;102221.56;6317400;28;20078;-75
2023/12/17 00:18:20;;;;;;;8.93;5.38;;;;;;;0.56;93.21;102213.84;6320092;28;20700;-71
2023/12/17 00:21:21;;;;;;;12.65;5.25;;;;;;;0.43;93.59;102211.94;6314499;28;20401;-71
2023/12/17 00:24:22;;;;;;;10.98;5.60;;;;;;;0.51;94.33;102212.91;6314790;28;20049;-70
2023/12/17 00:27:24;;;;;;;10.02;6.10;;;;;;;0.53;94.17;102209.50;6313093;28;20048;-70
2023/12/17 00:30:27;;;;;;;13.82;6.95;;;;;;;0.56;94.29;102217.28;6300622;28;20544;-71
2023/12/17 00:33:28;;;;;;;12.52;6.65;;;;;;;0.61;95.15;102230.19;6303882;28;20532;-71
2023/12/17 00:36:29;;;;;;;11.02;5.95;;;;;;;0.59;94.47;102222.44;6308525;28;20063;-71
2023/12/17 00:39:30;;;;;;;13.35;6.57;;;;;;;0.64;94.62;102230.25;6307762;28;20055;-71
2023/12/17 00:42:33;;;;;;;9.88;5.45;;;;;;;0.70;94.34;102226.88;6314578;28;20287;-75
2023/12/17 00:45:34;;;;;;;10.65;6.35;;;;;;;0.72;93.97;102232.91;6310922;28;20048;-71
2023/12/17 00:48:35;;;;;;;11.30;6.65;;;;;;;0.68;93.93;102249.13;6315981;28;20062;-71
2023/12/17 00:51:38;;;;;;;13.73;6.25;;;;;;;0.63;94.10;102240.50;6319925;28;20236;-71
2023/12/17 00:54:39;;;;;;;12.70;7.00;;;;;;;0.55;94.13;102225.81;6299062;28;20400;-75
2023/12/17 00:57:40;;;;;;;11.82;6.68;;;;;;;0.52;94.33;102227.50;6298695;28;20061;-75
2023/12/17 01:00:41;;;;;;;11.57;6.05;;;;;;;0.43;95.47;102225.63;6301801;28;20380;-72
2023/12/17 01:03:42;;;;;;;10.45;6.22;;;;;;;0.41;95.91;102229.88;6306688;28;20484;-75
2023/12/17 01:06:45;;;;;;;11.88;5.60;;;;;;;0.49;96.54;102242.84;6309413;28;20046;-75
2023/12/17 01:09:47;;;;;;;12.23;6.32;;;;;;;0.50;96.42;102248.00;6315930;28;20071;-75
2023/12/17 01:12:48;;;;;;;12.35;7.05;;;;;;;0.46;96.27;102233.38;6311164;28;20189;-71
2023/12/17 01:15:49;;;;;;;12.45;6.78;;;;;;;0.35;96.39;102220.38;6311139;28;20099;-74
2023/12/17 01:18:50;;;;;;;26.48;9.80;;;;;;;0.47;95.78;102223.97;6301299;28;20051;-71
2023/12/17 01:21:51;;;;;;;20.23;7.95;;;;;;;0.40;97.09;102223.03;6321100;28;20052;-71
2023/12/17 01:24:54;;;;;;;12.05;7.45;;;;;;;0.42;97.09;102226.47;6309631;28;20071;-71
2023/12/17 01:27:55;;;;;;;14.35;7.93;;;;;;;0.33;98.14;102231.44;6298631;28;20063;-71
2023/12/17 01:30:56;;;;;;;13.15;7.75;;;;;;;0.55;97.88;102237.78;6320110;28;20503;-71
2023/12/17 01:33:57;;;;;;;11.98;7.28;;;;;;;0.54;97.56;102247.22;6316708;28;20047;-71
2023/12/17 01:36:58;;;;;;;15.48;8.02;;;;;;;0.50;97.24;102248.00;6315380;28;20052;-71
2023/12/17 01:39:59;;;;;;;15.02;7.68;;;;;;;0.49;97.53;102250.56;6317238;28;20538;-71
2023/12/17 01:43:03;;;;;;;13.32;7.65;;;;;;;0.56;96.97;102265.22;6310237;28;20048;-71
2023/12/17 01:46:04;;;;;;;15.00;7.60;;;;;;;0.55;97.49;102260.91;6316422;28;20044;-71
2023/12/17 01:49:06;;;;;;;13.68;7.03;;;;;;;0.49;97.11;102242.84;6314241;28;20052;-75
2023/12/17 01:52:10;;;;;;;13.07;8.07;;;;;;;0.39;97.30;102241.81;6314469;28;20056;-71
2023/12/17 01:55:11;;;;;;;17.02;6.95;;;;;;;0.27;97.62;102219.41;6313669;28;20055;-71
2023/12/17 01:58:15;;;;;;;20.35;8.52;;;;;;;0.30;98.28;102205.75;6312174;28;20499;-75
2023/12/17 02:01:16;;;;;;;12.65;7.07;;;;;;;0.17;98.72;102192.69;6314499;28;20040;-71
2023/12/17 02:04:20;;;;;;;12.18;7.57;;;;;;;0.16;100.00;102197.81;6319057;28;20040;-75
2023/12/17 02:07:23;;;;;;;18.52;9.13;;;;;;;0.18;100.00;102196.97;6298721;28;20052;-75
2023/12/17 02:10:26;;;;;;;12.32;7.68;;;;;;;0.16;100.00;102193.53;6297851;28;20056;-75
2023/12/17 02:13:26;;;;;;;16.38;7.93;;;;;;;0.26;100.00;102217.66;6306740;28;20551;-71
2023/12/17 02:16:27;;;;;;;12.40;7.47;;;;;;;0.22;100.00;102207.31;6299584;28;20040;-75
2023/12/17 02:19:28;;;;;;;17.70;9.32;;;;;;;0.27;100.00;102210.81;6302927;28;20066;-75
2023/12/17 02:22:30;;;;;;;16.38;8.57;;;;;;;0.23;100.00;102207.34;6314073;28;20821;-74
2023/12/17 02:25:31;;;;;;;15.82;9.65;;;;;;;0.40;100.00;102185.34;6311333;28;20135;-75
2023/12/17 02:28:32;;;;;;;15.40;9.45;;;;;;;0.24;100.00;102190.22;6315870;28;20048;-71
2023/12/17 02:31:33;;;;;;;16.58;8.68;;;;;;;0.08;100.00;102191.69;6300506;28;20104;-71
2023/12/17 02:34:34;;;;;;;18.25;10.43;;;;;;;0.20;100.00;102217.56;6302835;28;20090;-71
2023/12/17 02:37:35;;;;;;;19.45;9.55;;;;;;;0.28;100.00;102225.41;6319541;28;20044;-70
2023/12/17 02:40:36;;;;;;;19.73;10.65;;;;;;;0.42;100.00;102208.50;6318085;28;20044;-75
2023/12/17 02:43:38;;;;;;;22.38;11.30;;;;;;;0.44;100.00;102208.53;6317967;28;20459;-70
2023/12/17 02:46:41;;;;;;;18.15;9.20;;;;;;;0.30;100.00;102210.88;6307758;28;20538;-71
2023/12/17 02:49:42;;;;;;;19.83;9.65;;;;;;;0.36;100.00;102203.25;6322547;28;20101;-71
2023/12/17 02:52:43;;;;;;;17.42;10.23;;;;;;;0.22;100.00;102208.19;6317578;28;20048;-71
2023/12/17 02:55:44;;;;;;;23.88;9.88;;;;;;;0.24;100.00;102200.50;6317363;28;20059;-71
2023/12/17 02:58:45;;;;;;;21.95;11.75;;;;;;;0.31;100.00;102204.88;6313942;28;20063;-71
2023/12/17 03:01:46;;;;;;;20.02;11.52;;;;;;;0.25;100.00;102204.78;6304461;28;20052;-71
2023/12/17 03:04:47;;;;;;;29.58;11.45;;;;;;;0.08;100.00;102214.78;6319573;28;20047;-71
2023/12/17 03:07:48;;;;;;;18.40;8.82;;;;;;;0.07;100.00;102231.03;6300090;28;20048;-75
2023/12/17 03:10:49;;;;;;;20.95;9.57;;;;;;;0.13;100.00;102224.31;6309623;28;20056;-75
2023/12/17 03:13:52;;;;;;;20.63;12.52;;;;;;;0.14;100.00;102218.31;6323278;28;20388;-70
2023/12/17 03:16:55;;;;;;;17.17;9.48;;;;;;;0.03;100.00;102208.72;6305447;28;20133;-75
2023/12/17 03:19:56;;;;;;;16.08;8.50;;;;;;;-0.06;100.00;102206.88;6299388;28;20060;-75
2023/12/17 03:22:57;;;;;;;30.58;12.45;;;;;;;-0.05;100.00;102188.06;6315620;28;20105;-71
2023/12/17 03:26:00;;;;;;;17.77;9.55;;;;;;;0.00;100.00;102194.16;6320973;28;20060;-71
2023/12/17 03:29:03;;;;;;;18.90;11.55;;;;;;;0.06;100.00;102189.09;6308560;28;20063;-71
2023/12/17 03:32:04;;;;;;;17.30;8.93;;;;;;;0.03;100.00;102196.75;6307727;28;20131;-75
2023/12/17 03:35:07;;;;;;;19.00;9.70;;;;;;;0.12;100.00;102193.47;6311865;28;20049;-71
2023/12/17 03:38:10;;;;;;;18.90;11.00;;;;;;;0.22;100.00;102195.34;6324570;28;20044;-70
2023/12/17 03:41:21;;;;;;;22.45;11.02;;;;;;;0.20;100.00;102199.59;6315846;28;20045;-70
2023/12/17 03:44:21;;;;;;;23.38;10.27;;;;;;;0.11;100.00;102192.59;6312497;28;20511;-71
2023/12/17 03:47:22;;;;;;;20.60;11.13;;;;;;;0.11;100.00;102195.16;6313903;28;20074;-75
2023/12/17 03:50:23;;;;;;;20.52;11.63;;;;;;;0.19;100.00;102206.44;6320756;28;20177;-71
2023/12/17 03:53:24;;;;;;;23.40;11.75;;;;;;;0.33;100.00;102216.03;6308767;28;20048;-71
2023/12/17 03:56:25;;;;;;;26.17;12.02;;;;;;;0.22;100.00;102215.03;6324171;28;20051;-75
2023/12/17 03:59:26;;;;;;;20.60;10.73;;;;;;;0.22;100.00;102204.75;6316087;28;20056;-72
2023/12/17 04:02:27;;;;;;;16.95;9.02;;;;;;;0.25;100.00;102218.50;6306203;28;20044;-74
2023/12/17 04:05:28;;;;;;;23.55;11.23;;;;;;;0.28;100.00;102215.97;6310066;28;20113;-75
2023/12/17 04:08:32;;;;;;;20.33;9.55;;;;;;;0.06;100.00;102226.72;6321885;28;20055;-75
2023/12/17 04:11:32;;;;;;;20.10;10.65;;;;;;;0.12;100.00;102225.13;6313221;28;20363;-71
2023/12/17 04:14:35;;;;;;;18.13;10.60;;;;;;;0.26;100.00;102227.94;6316017;28;20043;-75
2023/12/17 04:17:36;;;;;;;20.35;11.55;;;;;;;0.18;100.00;102209.81;6298507;28;20136;-75
2023/12/17 04:20:41;;;;;;;26.45;11.93;;;;;;;0.17;100.00;102194.41;6302089;28;20044;-74
2023/12/17 04:23:42;;;;;;;15.60;7.88;;;;;;;0.15;100.00;102185.81;6317347;28;20044;-75
2023/12/17 04:26:43;;;;;;;17.40;9.73;;;;;;;0.17;100.00;102190.13;6296762;28;20048;-75
2023/12/17 04:29:44;;;;;;;20.45;11.73;;;;;;;0.16;100.00;102202.94;6309644;28;20048;-74
2023/12/17 04:32:45;;;;;;;24.08;11.48;;;;;;;0.21;100.00;102201.31;6316981;28;20047;-70
2023/12/17 04:35:46;;;;;;;13.10;8.88;;;;;;;0.17;100.00;102205.53;6320766;28;20503;-71
2023/12/17 04:38:48;;;;;;;21.15;10.90;;;;;;;0.22;100.00;102202.19;6318663;28;20462;-71
2023/12/17 04:41:49;;;;;;;19.45;11.45;;;;;;;0.27;100.00;102200.53;6315850;28;20265;-71
2023/12/17 04:44:50;;;;;;;18.65;9.98;;;;;;;0.29;100.00;102199.75;6309843;28;20060;-70
2023/12/17 04:47:51;;;;;;;22.58;12.05;;;;;;;0.20;100.00;102194.44;6320340;28;20048;-71
2023/12/17 04:50:54;;;;;;;19.33;8.40;;;;;;;0.31;100.00;102212.59;6309741;28;20083;-75
2023/12/17 04:53:55;;;;;;;22.38;9.23;;;;;;;0.24;100.00;102209.06;6317249;28;20044;-71
2023/12/17 04:56:57;;;;;;;18.58;10.73;;;;;;;0.19;100.00;102211.56;6303101;28;20134;-75
2023/12/17 05:00:00;;;;;;;18.00;9.43;;;;;;;0.23;100.00;102209.03;6319198;28;20492;-72
2023/12/17 05:03:03;;;;;;;23.58;10.88;;;;;;;0.15;100.00;102220.06;6313912;28;20108;-75
2023/12/17 05:06:05;;;;;;;20.25;11.02;;;;;;;0.29;100.00;102232.25;6317467;28;20044;-71
2023/12/17 05:09:06;;;;;;;18.73;10.88;;;;;;;0.25;100.00;102239.06;6320151;28;20509;-71
2023/12/17 05:12:07;;;;;;;18.50;10.27;;;;;;;0.23;100.00;102247.53;6315359;28;20040;-75
2023/12/17 05:15:08;;;;;;;24.90;11.48;;;;;;;0.16;100.00;102244.88;6304179;28;20040;-75
2023/12/17 05:18:09;;;;;;;26.02;12.85;;;;;;;0.08;100.00;102243.03;6330123;28;20276;-75
2023/12/17 05:21:10;;;;;;;25.83;10.45;;;;;;;0.23;100.00;102240.72;6320346;28;20048;-74
2023/12/17 05:24:12;;;;;;;29.77;12.38;;;;;;;0.30;100.00;102242.53;6318819;28;20539;-74
2023/12/17 05:27:13;;;;;;;33.15;11.45;;;;;;;0.27;100.00;102226.22;6318679;28;20135;-71
2023/12/17 05:30:16;;;;;;;22.33;11.20;;;;;;;0.23;100.00;102227.91;6307890;28;20059;-71
2023/12/17 05:33:20;;;;;;;20.05;9.27;;;;;;;0.18;100.00;102221.81;6317807;28;20197;-71
2023/12/17 05:36:21;;;;;;;30.23;10.95;;;;;;;0.13;100.00;102224.31;6301693;28;20051;-75
2023/12/17 05:39:22;;;;;;;21.70;9.98;;;;;;;0.10;100.00;102216.53;6298766;28;20055;-74
2023/12/17 05:42:23;;;;;;;25.90;10.25;;;;;;;0.16;100.00;102213.22;6315435;28;20048;-75
2023/12/17 05:45:24;;;;;;;24.77;10.02;;;;;;;-0.04;100.00;102218.03;6312825;28;20052;-74
2023/12/17 05:48:25;;;;;;;17.20;10.00;;;;;;;0.17;100.00;102223.50;6316745;28;20532;-74
2023/12/17 05:51:28;;;;;;;27.15;9.40;;;;;;;0.05;100.00;102228.44;6311425;28;20036;-75
2023/12/17 05:54:34;;;;;;;19.38;7.50;;;;;;;0.14;100.00;102243.97;6312196;28;20139;-71
2023/12/17 05:57:34;;;;;;;32.42;11.50;;;;;;;0.25;100.00;102236.50;6300761;28;20056;-71
2023/12/17 06:00:35;;;;;;;35.63;7.53;;;;;;;0.08;100.00;102227.63;6303466;28;20040;-71
2023/12/17 06:03:39;;;;;;;15.25;8.13;;;;;;;0.17;100.00;102226.09;6304589;28;20052;-74
2023/12/17 06:06:42;;;;;;;13.60;8.25;;;;;;;0.26;100.00;102243.34;6306489;28;20052;-74
2023/12/17 06:09:45;;;;;;;16.50;8.57;;;;;;;0.22;100.00;102253.53;6321179;28;20048;-71
2023/12/17 06:12:46;;;;;;;23.58;10.40;;;;;;;0.36;100.00;102254.63;6311407;28;20040;-75
2023/12/17 06:15:47;;;;;;;24.90;10.63;;;;;;;0.24;100.00;102251.84;6309936;28;20117;-70
2023/12/17 06:18:49;;;;;;;28.33;8.98;;;;;;;0.20;100.00;102248.38;6294810;28;20076;-71
2023/12/17 06:21:50;;;;;;;44.38;10.52;;;;;;;0.25;100.00;102230.47;6304454;28;20055;-74
2023/12/17 06:24:51;;;;;;;15.40;8.75;;;;;;;0.30;100.00;102232.28;6316824;28;20051;-71
2023/12/17 06:27:52;;;;;;;34.28;11.82;;;;;;;0.53;100.00;102239.47;6299572;28;20484;-71
2023/12/17 06:30:56;;;;;;;37.37;10.03;;;;;;;0.36;100.00;102270.91;6299694;28;20505;-71
2023/12/17 06:33:57;;;;;;;40.33;10.32;;;;;;;0.30;100.00;102265.66;6316933;28;20488;-71
2023/12/17 06:36:58;;;;;;;23.13;10.38;;;;;;;0.29;100.00;102284.50;6318589;28;20052;-74
2023/12/17 06:39:59;;;;;;;25.50;11.27;;;;;;;0.34;100.00;102279.41;6307367;28;20056;-75
2023/12/17 06:43:00;;;;;;;29.80;11.63;;;;;;;0.36;100.00;102265.75;6315775;28;20048;-75
2023/12/17 06:46:01;;;;;;;30.05;12.32;;;;;;;0.38;100.00;102252.94;6302171;28;20137;-75
2023/12/17 06:49:02;;;;;;;26.15;7.53;;;;;;;0.20;100.00;102249.22;6317227;28;20058;-71
2023/12/17 06:52:03;;;;;;;22.63;10.25;;;;;;;0.45;100.00;102244.50;6314416;28;20048;-71
2023/12/17 06:55:06;;;;;;;34.33;12.65;;;;;;;0.36;100.00;102255.50;6298531;28;20049;-71
2023/12/17 06:58:07;;;;;;;17.50;10.27;;;;;;;0.49;100.00;102273.66;6313324;28;20079;-74
2023/12/17 07:01:08;;;;;;;16.20;10.38;;;;;;;0.34;100.00;102276.84;6315889;28;20477;-74
2023/12/17 07:04:09;;;;;;;18.35;9.05;;;;;;;0.36;100.00;102264.91;6319434;28;20487;-74
2023/12/17 07:07:10;;;;;;;14.00;6.80;;;;;;;0.27;100.00;102272.44;6303217;28;20052;-74
2023/12/17 07:10:12;;;;;;;29.40;9.88;;;;;;;0.29;100.00;102274.22;6310538;28;20531;-74
2023/12/17 07:13:15;;;;;;;30.77;11.75;;;;;;;0.34;100.00;102277.72;6302793;28;20059;-71
2023/12/17 07:16:24;;;;;;;28.83;10.57;;;;;;;0.27;100.00;102280.13;6295680;28;20049;-71
2023/12/17 07:19:25;;;;;;;16.73;8.57;;;;;;;0.33;100.00;102285.38;6297042;28;20122;-71
2023/12/17 07:22:26;;;;;;;19.45;10.10;;;;;;;0.40;100.00;102275.25;6307771;28;20119;-71
2023/12/17 07:25:27;;;;;;;15.23;7.65;;;;;;;0.44;100.00;102283.03;6313212;28;20423;-74
2023/12/17 07:28:28;;;;;;;20.08;10.35;;;;;;;0.66;100.00;102285.09;6323318;28;20051;-72
2023/12/17 07:31:29;;;;;;;33.75;9.55;;;;;;;0.41;100.00;102265.81;6323016;28;20051;-71
2023/12/17 07:34:30;;;;;;;30.75;10.85;;;;;;;0.59;100.00;102275.53;6313040;28;20067;-72
2023/12/17 07:37:31;;;;;;;17.70;9.50;;;;;;;0.48;100.00;102282.22;6298486;28;20480;-72
2023/12/17 07:40:32;;;;;;;45.05;9.93;;;;;;;0.55;100.00;102284.03;6310640;28;20333;-74
2023/12/17 07:43:35;;;;;;;35.78;12.13;;;;;;;0.73;100.00;102284.31;6308791;28;20508;-74
2023/12/17 07:46:35;;;;;;;22.10;11.63;;;;;;;0.56;100.00;102296.91;6315267;28;20048;-74
2023/12/17 07:49:39;;;;;;;40.65;11.70;;;;;;;0.56;100.00;102291.78;6313943;28;20419;-74
2023/12/17 07:52:40;;;;;;;37.67;12.13;;;;;;;0.63;100.00;102305.59;6321518;28;20560;-71
2023/12/17 07:55:41;;;;;;;12.82;7.78;;;;;;;0.75;100.00;102302.34;6318733;28;20056;-71
2023/12/17 07:58:42;;;;;;;32.67;10.65;;;;;;;0.75;100.00;102305.78;6298749;28;20514;-72
2023/12/17 08:01:45;;;;;;;18.10;10.15;;;;;;;0.88;100.00;102318.81;6308049;28;20040;-71
2023/12/17 08:04:46;;;;;;;41.30;8.52;;;;;;;0.63;100.00;102308.16;6319682;28;20067;-71
2023/12/17 08:07:47;;;;;;;24.95;12.13;;;;;;;0.88;100.00;102309.41;6319306;28;20048;-72
2023/12/17 08:10:48;;;;;;;37.08;9.52;;;;;;;0.89;100.00;102298.28;6319394;28;20051;-71
2023/12/17 08:13:49;;;;;;;29.23;10.15;;;;;;;0.94;100.00;102316.34;6316812;28;20052;-71
2023/12/17 08:16:50;;;;;;;28.02;11.00;;;;;;;0.91;100.00;102329.16;6320699;28;20109;-71
2023/12/17 08:19:51;;;;;;;22.55;12.13;;;;;;;0.85;100.00;102327.34;6301093;28;20548;-71
2023/12/17 08:22:52;;;;;;;20.27;11.73;;;;;;;0.92;100.00;102342.00;6317513;28;20044;-71
2023/12/17 08:25:54;;;;;;;40.70;14.45;;;;;;;0.95;100.00;102346.38;6320363;28;20048;-71
2023/12/17 08:28:55;;;;;;;28.80;13.52;;;;;;;0.91;100.00;102342.88;6316843;28;20492;-71
2023/12/17 08:31:56;;;;;;;26.38;12.15;;;;;;;0.87;100.00;102346.25;6301576;28;20040;-71
2023/12/17 08:34:59;;;;;;;28.73;11.25;;;;;;;0.88;100.00;102345.38;6321807;28;20560;-71
2023/12/17 08:38:03;;;;;;;23.30;10.45;;;;;;;0.87;100.00;102341.09;6323250;28;20055;-71
2023/12/17 08:41:05;;;;;;;29.52;11.68;;;;;;;0.82;100.00;102335.00;6322584;28;20503;-71
2023/12/17 08:44:07;;;;;;;37.65;13.43;;;;;;;1.03;100.00;102331.03;6298637;28;20123;-71
2023/12/17 08:47:08;;;;;;;12.75;6.00;;;;;;;0.97;100.00;102319.84;6297423;28;20393;-74
2023/12/17 08:50:09;;;;;;;25.08;12.02;;;;;;;0.99;100.00;102319.88;6297638;28;20060;-71
2023/12/17 08:53:10;;;;;;;32.60;11.45;;;;;;;1.09;100.00;102320.84;6312183;28;20063;-71
2023/12/17 08:56:12;;;;;;;13.32;6.65;;;;;;;1.02;100.00;102325.03;6321928;28;20056;-72
2023/12/17 08:59:13;;;;;;;47.47;9.70;;;;;;;1.04;100.00;102327.63;6301374;28;20140;-71
2023/12/17 09:02:13;;;;;;;23.75;10.02;;;;;;;1.16;100.00;102313.25;6296195;28;20045;-74
2023/12/17 09:05:14;;;;;;;21.55;9.25;;;;;;;1.04;100.00;102304.50;6297486;28;20056;-74
2023/12/17 09:08:15;;;;;;;16.45;9.50;;;;;;;1.27;100.00;102302.22;6297161;28;20052;-74
2023/12/17 09:11:16;;;;;;;24.35;9.48;;;;;;;1.20;100.00;102278.16;6297352;28;20072;-74
2023/12/17 09:14:18;;;;;;;17.73;9.13;;;;;;;1.04;100.00;102286.50;6316290;28;20117;-74
2023/12/17 09:17:18;;;;;;;19.73;11.52;;;;;;;0.92;100.00;102292.31;6314484;28;20056;-74
2023/12/17 09:20:22;;;;;;;18.42;8.30;;;;;;;0.88;100.00;102282.84;6295639;28;20045;-74
2023/12/17 09:23:22;;;;;;;15.60;6.85;;;;;;;0.85;100.00;102272.53;6295776;28;20416;-75
2023/12/17 09:26:23;;;;;;;15.55;8.05;;;;;;;0.93;100.00;102263.22;6309408;28;20054;-74
2023/12/17 09:29:25;;;;;;;19.20;9.85;;;;;;;0.94;100.00;102291.50;6307285;28;20048;-74
2023/12/17 09:32:26;;;;;;;26.75;10.40;;;;;;;0.85;100.00;102286.22;6312725;28;20079;-74
2023/12/17 09:35:29;;;;;;;29.60;12.23;;;;;;;0.98;100.00;102289.84;6320528;28;20051;-74
2023/12/17 09:38:30;;;;;;;24.08;11.25;;;;;;;1.07;100.00;102294.25;6296556;28;20493;-74
2023/12/17 09:41:32;;;;;;;19.35;9.20;;;;;;;1.15;100.00;102300.34;6318997;28;20434;-74
2023/12/17 09:44:35;;;;;;;19.77;10.07;;;;;;;1.33;100.00;102292.88;6321203;28;20094;-74
2023/12/17 09:47:36;;;;;;;44.47;11.68;;;;;;;1.47;100.00;102293.06;6320164;28;20134;-74
2023/12/17 09:50:37;;;;;;;19.52;10.73;;;;;;;1.28;100.00;102299.69;6319226;28;20047;-74
2023/12/17 09:53:39;;;;;;;21.50;10.50;;;;;;;1.18;100.00;102290.97;6320441;28;20079;-74
2023/12/17 09:56:39;;;;;;;9.70;6.38;;;;;;;1.14;100.00;102289.22;6319670;28;20055;-74
2023/12/17 09:59:42;;;;;;;24.45;10.02;;;;;;;1.35;100.00;102298.91;6318740;28;20078;-74
2023/12/17 10:02:43;;;;;;;32.92;12.45;;;;;;;1.39;100.00;102289.53;6304687;28;20052;-74
2023/12/17 10:05:52;;;;;;;13.63;7.82;;;;;;;1.14;100.00;102286.63;6296024;28;20049;-74
2023/12/17 10:08:56;;;;;;;44.67;12.15;;;;;;;1.19;100.00;102279.88;6300850;28;20512;-74
2023/12/17 10:11:57;;;;;;;24.92;11.55;;;;;;;1.46;100.00;102264.75;6297617;28;20036;-74
2023/12/17 10:14:58;;;;;;;24.05;11.40;;;;;;;1.22;100.00;102273.03;6307537;28;20512;-74
2023/12/17 10:18:01;;;;;;;22.80;11.88;;;;;;;1.45;100.00;102279.31;6300275;28;20049;-75
2023/12/17 10:21:04;;;;;;;30.08;11.93;;;;;;;1.31;100.00;102266.28;6294822;28;20182;-75
2023/12/17 10:24:05;;;;;;;30.90;12.83;;;;;;;1.31;100.00;102266.28;6311819;28;20052;-74
2023/12/17 10:27:20;;;;;;;33.50;13.50;;;;;;;1.46;100.00;102270.75;6319200;28;20105;-74
2023/12/17 10:30:26;;;;;;;23.38;11.00;;;;;;;1.32;100.00;102264.56;6318035;28;20449;-74
2023/12/17 10:33:33;;;;;;;24.13;10.55;;;;;;;1.51;100.00;102261.38;6320518;28;20434;-71
2023/12/17 10:36:37;;;;;;;22.77;12.23;;;;;;;1.69;100.00;102246.97;6320604;28;20044;-72
2023/12/17 10:39:39;;;;;;;35.55;11.07;;;;;;;1.46;100.00;102242.44;6318504;28;20129;-71
2023/12/17 10:42:41;;;;;;;21.80;9.75;;;;;;;1.38;100.00;102244.94;6320495;28;20131;-72
2023/12/17 10:45:44;;;;;;;28.80;12.88;;;;;;;1.52;100.00;102241.66;6304587;28;20484;-71
2023/12/17 10:48:46;;;;;;;18.58;9.15;;;;;;;1.51;100.00;102242.53;6315308;28;20395;-72
2023/12/17 10:51:48;;;;;;;16.75;9.25;;;;;;;1.53;100.00;102243.41;6292575;28;20048;-71
2023/12/17 10:54:49;;;;;;;28.35;9.90;;;;;;;1.49;100.00;102245.06;6297053;28;20489;-71
2023/12/17 10:57:58;;;;;;;38.92;12.80;;;;;;;1.50;100.00;102251.91;6305951;28;20065;-71
2023/12/17 11:00:59;;;;;;;25.75;11.73;;;;;;;1.57;100.00;102246.00;6315876;28;20047;-71
2023/12/17 11:04:01;;;;;;;23.60;11.82;;;;;;;1.57;100.00;102245.16;6314947;28;20048;-71
2023/12/17 11:07:05;;;;;;;31.23;8.53;;;;;;;1.48;100.00;102248.47;6310357;28;20055;-71
2023/12/17 11:10:09;;;;;;;14.20;7.65;;;;;;;1.51;100.00;102234.78;6324110;28;20764;-71
2023/12/17 11:13:10;;;;;;;37.95;10.95;;;;;;;1.39;100.00;102235.50;6307020;28;20131;-74
2023/12/17 11:16:24;;;;;;;24.73;11.52;;;;;;;1.43;100.00;102228.69;6307754;28;20068;-74
2023/12/17 11:19:28;;;;;;;21.30;11.43;;;;;;;1.52;100.00;102234.78;6307161;28;20048;-74
2023/12/17 11:22:35;;;;;;;22.33;9.77;;;;;;;1.64;100.00;102236.66;6299544;28;20558;-75
2023/12/17 11:25:36;;;;;;;24.13;12.13;;;;;;;1.72;100.00;102236.75;6299498;28;20050;-75
2023/12/17 11:28:38;;;;;;;33.03;11.80;;;;;;;1.60;100.00;102233.16;6298340;28;20053;-75
2023/12/17 11:31:39;;;;;;;24.00;9.43;;;;;;;1.68;100.00;102240.13;6318051;28;20040;-71
2023/12/17 11:34:41;;;;;;;25.88;12.02;;;;;;;2.10;100.00;102257.72;6324437;28;20052;-71
2023/12/17 11:37:42;;;;;;;27.88;15.20;;;;;;;2.15;100.00;102252.59;6324450;28;20128;-72
2023/12/17 11:40:43;;;;;;;27.83;12.45;;;;;;;1.83;100.00;102235.13;6322984;28;20130;-71
2023/12/17 11:43:44;;;;;;;27.95;12.15;;;;;;;1.83;100.00;102240.28;6316826;28;20534;-71
2023/12/17 11:46:49;;;;;;;22.40;11.65;;;;;;;1.64;100.00;102235.78;6324127;28;20044;-71
2023/12/17 11:49:52;;;;;;;30.75;12.38;;;;;;;1.75;100.00;102242.78;6310363;28;20087;-71
2023/12/17 11:53:02;;;;;;;29.63;14.18;;;;;;;1.92;100.00;102244.66;6299633;28;20150;-74
2023/12/17 11:56:05;;;;;;;27.02;12.38;;;;;;;1.94;100.00;102235.25;6307823;28;20087;-74
2023/12/17 11:59:06;;;;;;;21.52;10.25;;;;;;;2.07;100.00;102234.50;6298380;28;20060;-75
2023/12/17 12:02:07;;;;;;;43.20;19.92;;;;;;;1.93;100.00;102220.63;6305532;28;20080;-74
2023/12/17 12:05:09;;;;;;;34.93;14.43;;;;;;;2.20;100.00;102226.03;6322536;28;20442;-75
2023/12/17 12:08:11;;;;;;;22.27;11.73;;;;;;;2.13;100.00;102221.69;6323881;28;20063;-75
2023/12/17 12:11:14;;;;;;;29.95;13.30;;;;;;;2.05;100.00;102212.16;6321498;28;20071;-75
2023/12/17 12:14:15;;;;;;;27.42;11.30;;;;;;;2.05;100.00;102199.28;6322330;28;20389;-75
2023/12/17 12:17:40;;;;;;;29.77;12.75;;;;;;;2.13;100.00;102213.94;6323526;28;20105;-75
2023/12/17 12:20:41;;;;;;;33.05;15.27;;;;;;;2.29;100.00;102217.53;6311815;28;20052;-72
2023/12/17 12:23:54;;;;;;;29.63;14.18;;;;;;;2.13;100.00;102200.22;6302613;28;20572;-72
2023/12/17 12:26:55;;;;;;;43.05;14.77;;;;;;;1.92;100.00;102203.47;6298155;28;20412;-72
2023/12/17 12:29:57;;;;;;;26.83;11.90;;;;;;;1.95;100.00;102218.94;6314163;28;20090;-75
2023/12/17 12:33:11;;;;;;;36.45;14.10;;;;;;;2.13;100.00;102225.97;6322209;28;20059;-75
2023/12/17 12:36:15;;;;;;;26.63;13.90;;;;;;;2.23;100.00;102222.63;6301461;28;20055;-75
2023/12/17 12:39:18;;;;;;;31.20;13.27;;;;;;;2.15;100.00;102219.97;6298083;28;20054;-72
2023/12/17 12:42:19;;;;;;;26.98;11.90;;;;;;;2.13;100.00;102215.66;6297678;28;20040;-71
2023/12/17 12:45:20;;;;;;;28.90;14.23;;;;;;;2.32;100.00;102214.94;6310303;28;20052;-72
2023/12/17 12:48:25;;;;;;;27.50;13.57;;;;;;;2.49;100.00;102215.09;6318157;28;20052;-72
2023/12/17 12:51:28;;;;;;;32.80;13.70;;;;;;;2.33;100.00;102214.13;6318721;28;20044;-75
2023/12/17 12:54:29;;;;;;;32.47;15.50;;;;;;;2.31;100.00;102209.81;6317279;28;20047;-75
2023/12/17 12:57:30;;;;;;;33.78;15.00;;;;;;;2.35;100.00;102209.84;6308015;28;20109;-75
2023/12/17 13:00:30;;;;;;;32.70;15.40;;;;;;;2.22;100.00;102218.31;6297316;28;20564;-71
2023/12/17 13:03:31;;;;;;;32.05;12.63;;;;;;;2.29;100.00;102220.09;6318773;28;20105;-75
2023/12/17 13:06:32;;;;;;;39.05;12.68;;;;;;;2.15;100.00;102225.13;6321289;28;20442;-75
2023/12/17 13:09:34;;;;;;;31.45;14.82;;;;;;;2.25;100.00;102220.94;6322252;28;20048;-75
2023/12/17 13:12:35;;;;;;;22.90;9.40;;;;;;;2.14;100.00;102209.66;6311158;28;20048;-75
2023/12/17 13:15:38;;;;;;;31.70;13.68;;;;;;;2.06;100.00;102201.00;6296929;28;20269;-75
2023/12/17 13:18:39;;;;;;;31.00;14.40;;;;;;;2.06;100.00;102198.41;6296801;28;20053;-75
2023/12/17 13:21:40;;;;;;;22.40;13.07;;;;;;;2.39;100.00;102197.84;6296786;28;20045;-75
2023/12/17 13:24:41;;;;;;;32.90;14.50;;;;;;;2.30;100.00;102185.75;6295311;28;20063;-75
2023/12/17 13:27:42;;;;;;;43.10;17.75;;;;;;;2.27;100.00;102185.72;6296913;28;20082;-75
2023/12/17 13:30:43;;;;;;;42.03;16.10;;;;;;;2.43;100.00;102189.28;6295100;28;20131;-75
2023/12/17 13:33:44;;;;;;;28.35;13.45;;;;;;;2.32;100.00;102185.75;6295522;28;20052;-73
2023/12/17 13:36:47;;;;;;;52.72;20.58;;;;;;;2.49;100.00;102185.88;6296814;28;20051;-72
2023/12/17 13:39:48;;;;;;;45.80;16.92;;;;;;;2.48;100.00;102181.59;6299932;28;20048;-72
2023/12/17 13:42:50;;;;;;;32.42;14.48;;;;;;;2.31;100.00;102187.47;6307902;28;20427;-71
2023/12/17 13:45:51;;;;;;;34.15;12.80;;;;;;;2.14;100.00;102186.47;6321376;28;20051;-71
2023/12/17 13:48:52;;;;;;;39.63;15.65;;;;;;;2.13;100.00;102187.34;6320229;28;20062;-71
2023/12/17 13:51:53;;;;;;;38.42;17.15;;;;;;;2.26;100.00;102189.16;6315678;28;20044;-71